Tzoanna Vi — SYHY — position and weather

sailwx.info

Track history (hours):
 
Tides and Currents Weather Stations Pressure Air Temp Water Temp Dewpoint Dewpoint Depression Visibility Wind Speed Wind Dir Waves Ship Positions

Tzoanna Vi

Last reported at 2015-Jul-31 11:26 UTC. Time now 2015-Jul-31 21:27 UTC.
Position N 38°04' E 024°06'.

Length 84 m; draft 3.4 m.

Type: Cargo ship. MMSI: 237991700.

Date/timePositionNaut miles runAvg speedWind from/ knotsBaromVisibWave heightAir tempDewpointWater temp
2015-Jul-31 11:26N 38°04' E 024°06'27 6.5
2015-Jul-31 07:19N 37°38' E 023°55'6 7.8
2015-Jul-31 06:33N 37°39' E 023°47'7 7.2
2015-Jul-31 05:33N 37°43' E 023°40'8 7.8
2015-Jul-31 04:33N 37°50' E 023°35'8 8.3
2015-Jul-31 03:33N 37°51' E 023°24'9 8.2
2015-Jul-31 02:25N 37°53' E 023°13'7 8.2
2015-Jul-31 01:33N 37°54' E 023°04'28 1.8
2015-Jul-30 10:13N 38°12' E 022°37'7 9.8
2015-Jul-30 09:30N 38°07' E 022°44'18 8.0
2015-Jul-30 07:13N 37°55' E 023°01'5 6.7
2015-Jul-30 06:27N 37°53' E 023°08'7 8.4
2015-Jul-30 05:33N 37°53' E 023°17'8 8.4
2015-Jul-30 04:33N 37°51' E 023°28'9 8.6
2015-Jul-30 03:33N 37°51' E 023°38'8 8.5
2015-Jul-30 02:33N 37°43' E 023°44'8 8.2
2015-Jul-30 01:33N 37°39' E 023°52'9 9.0
2015-Jul-30 00:33N 37°38' E 024°04'10 8.9
2015-Jul-29 23:21N 37°44' E 024°15'8 8.6
2015-Jul-29 22:25N 37°49' E 024°23'32 7.6
2015-Jul-29 18:14N 38°20' E 024°27'56 1.1
2015-Jul-27 16:31N 37°24' E 024°21'11 8.0
2015-Jul-27 15:10N 37°14' E 024°20'35 3.5
2015-Jul-27 05:19N 36°39' E 024°21'0 0.2
2015-Jul-27 03:25N 36°39' E 024°21'0 0.0
2015-Jul-27 02:30N 36°39' E 024°21'0 0.0
2015-Jul-27 01:13N 36°39' E 024°21'0 0.0
2015-Jul-27 00:33N 36°39' E 024°21'0 0.0
2015-Jul-26 22:28N 36°39' E 024°21'0 0.0
2015-Jul-26 21:13N 36°39' E 024°21'0 0.1
2015-Jul-26 20:06N 36°39' E 024°21'0 0.0
2015-Jul-26 19:11N 36°39' E 024°21'0 0.1
2015-Jul-26 18:33N 36°39' E 024°21'4 3.9
2015-Jul-26 17:30N 36°42' E 024°18'1010.2
2015-Jul-26 16:32N 36°52' E 024°19'1010.4
2015-Jul-26 15:33N 37°02' E 024°19'1110.5
2015-Jul-26 14:33N 37°13' E 024°20'4110.1
2015-Jul-26 10:31N 37°53' E 024°31'45 1.1
2015-Jul-24 16:16N 38°22' E 023°47'4 0.2
2015-Jul-23 23:26N 38°22' E 023°52'  
2015-Jul-21 15:29N 38°22' E 023°47'  
Track history (hours):
 
Tides and Currents Weather Stations Pressure Air Temp Water Temp Dewpoint Dewpoint Depression Visibility Wind Speed Wind Dir Waves Ship Positions

Tzoanna Vi

Last reported at 2015-Jul-31 11:26 UTC. Time now 2015-Jul-31 21:27 UTC.
Position N 38°04' E 024°06'.

Length 84 m; draft 3.4 m.

Type: Cargo ship. MMSI: 237991700.

Date/timePositionNaut miles runAvg speedWind from/ knotsBaromVisibWave heightAir tempDewpointWater temp
2015-Jul-31 11:26N 38°04' E 024°06'27 6.5
2015-Jul-31 07:19N 37°38' E 023°55'6 7.8
2015-Jul-31 06:33N 37°39' E 023°47'7 7.2
2015-Jul-31 05:33N 37°43' E 023°40'8 7.8
2015-Jul-31 04:33N 37°50' E 023°35'8 8.3
2015-Jul-31 03:33N 37°51' E 023°24'9 8.2
2015-Jul-31 02:25N 37°53' E 023°13'7 8.2
2015-Jul-31 01:33N 37°54' E 023°04'28 1.8
2015-Jul-30 10:13N 38°12' E 022°37'7 9.8
2015-Jul-30 09:30N 38°07' E 022°44'18 8.0
2015-Jul-30 07:13N 37°55' E 023°01'5 6.7
2015-Jul-30 06:27N 37°53' E 023°08'7 8.4
2015-Jul-30 05:33N 37°53' E 023°17'8 8.4
2015-Jul-30 04:33N 37°51' E 023°28'9 8.6
2015-Jul-30 03:33N 37°51' E 023°38'8 8.5
2015-Jul-30 02:33N 37°43' E 023°44'8 8.2
2015-Jul-30 01:33N 37°39' E 023°52'9 9.0
2015-Jul-30 00:33N 37°38' E 024°04'10 8.9
2015-Jul-29 23:21N 37°44' E 024°15'8 8.6
2015-Jul-29 22:25N 37°49' E 024°23'32 7.6
2015-Jul-29 18:14N 38°20' E 024°27'56 1.1
2015-Jul-27 16:31N 37°24' E 024°21'11 8.0
2015-Jul-27 15:10N 37°14' E 024°20'35 3.5
2015-Jul-27 05:19N 36°39' E 024°21'0 0.2
2015-Jul-27 03:25N 36°39' E 024°21'0 0.0
2015-Jul-27 02:30N 36°39' E 024°21'0 0.0
2015-Jul-27 01:13N 36°39' E 024°21'0 0.0
2015-Jul-27 00:33N 36°39' E 024°21'0 0.0
2015-Jul-26 22:28N 36°39' E 024°21'0 0.0
2015-Jul-26 21:13N 36°39' E 024°21'0 0.1
2015-Jul-26 20:06N 36°39' E 024°21'0 0.0
2015-Jul-26 19:11N 36°39' E 024°21'0 0.1
2015-Jul-26 18:33N 36°39' E 024°21'4 3.9
2015-Jul-26 17:30N 36°42' E 024°18'1010.2
2015-Jul-26 16:32N 36°52' E 024°19'1010.4
2015-Jul-26 15:33N 37°02' E 024°19'1110.5
2015-Jul-26 14:33N 37°13' E 024°20'4110.1
2015-Jul-26 10:31N 37°53' E 024°31'45 1.1
2015-Jul-24 16:16N 38°22' E 023°47'4 0.2
2015-Jul-23 23:26N 38°22' E 023°52'  
2015-Jul-21 15:29N 38°22' E 023°47'  

Dump ship's entire track history